createdAt,value
2018-09-26T00:00:48.359Z,67.20
2018-09-26T00:03:25.760Z,67.10
2018-09-26T00:05:54.004Z,66.90
2018-09-26T00:10:51.359Z,67.40
2018-09-26T00:13:19.454Z,67.60
2018-09-26T00:15:47.544Z,67.80
2018-09-26T00:18:15.564Z,67.00
2018-09-26T00:23:11.698Z,67.40
2018-09-26T00:25:39.802Z,67.80
2018-09-26T00:28:07.790Z,67.70
2018-09-26T00:30:35.961Z,67.70
2018-09-26T00:38:00.736Z,67.30
2018-09-26T00:40:28.788Z,67.70
2018-09-26T00:42:56.881Z,67.80
2018-09-26T00:45:24.960Z,68.20
2018-09-26T00:47:53.015Z,68.60
2018-09-26T00:52:49.206Z,69.50
2018-09-26T00:57:45.309Z,69.40
2018-09-26T01:02:41.830Z,70.80
2018-09-26T01:05:10.181Z,71.00
2018-09-26T01:07:38.227Z,71.30
2018-09-26T01:10:06.304Z,71.40
2018-09-26T01:17:32.343Z,71.50
2018-09-26T01:20:00.367Z,71.80
2018-09-26T01:24:56.524Z,72.10
2018-09-26T01:27:24.721Z,72.50
2018-09-26T01:29:53.968Z,72.90
2018-09-26T01:34:50.053Z,73.40
2018-09-26T01:37:18.218Z,73.70
2018-09-26T01:39:46.485Z,73.70
2018-09-26T01:42:14.571Z,74.00
2018-09-26T01:44:42.657Z,74.20
2018-09-26T01:47:10.696Z,74.60
2018-09-26T01:54:34.948Z,74.90
2018-09-26T01:57:03.012Z,75.10
2018-09-26T01:59:31.129Z,75.30
2018-09-26T02:01:59.121Z,75.20
2018-09-26T02:04:27.205Z,74.50
2018-09-26T02:06:55.290Z,73.90
2018-09-26T02:09:23.346Z,74.40
2018-09-26T02:11:51.453Z,75.00
2018-09-26T02:14:19.485Z,75.50
2018-09-26T02:16:47.460Z,75.30
2018-09-26T02:19:15.612Z,73.70
2018-09-26T02:21:43.786Z,74.70
2018-09-26T02:26:39.858Z,75.80
2018-09-26T02:29:08.080Z,76.00
2018-09-26T02:31:36.310Z,75.80
2018-09-26T02:36:32.425Z,76.20
2018-09-26T02:41:28.572Z,75.80
2018-09-26T02:43:56.692Z,74.90
2018-09-26T02:48:58.151Z,75.60
2018-09-26T02:51:26.148Z,75.90
2018-09-26T02:53:54.162Z,76.20
2018-09-26T02:56:24.438Z,75.90
2018-09-26T03:01:20.525Z,74.90
2018-09-26T03:03:48.723Z,73.90
2018-09-26T03:06:17.280Z,73.50
2018-09-26T03:11:13.207Z,72.70
2018-09-26T03:13:41.553Z,72.90
2018-09-26T03:16:09.585Z,72.70
2018-09-26T03:21:06.655Z,73.20
2018-09-26T03:23:34.700Z,73.40
2018-09-26T03:26:02.797Z,73.20
2018-09-26T03:30:58.991Z,71.30
2018-09-26T03:33:27.016Z,72.00
2018-09-26T03:35:55.058Z,71.80
2018-09-26T03:38:23.211Z,72.50
2018-09-26T03:40:51.503Z,73.20
2018-09-26T03:48:15.724Z,73.50
2018-09-26T03:50:45.026Z,73.40
2018-09-26T03:53:13.179Z,73.30
2018-09-26T03:55:41.502Z,72.40
2018-09-26T03:58:09.535Z,71.70
2018-09-26T04:00:37.667Z,71.10
2018-09-26T04:03:05.807Z,70.50
2018-09-26T04:05:34.072Z,70.80
2018-09-26T04:08:02.161Z,71.00
2018-09-26T04:10:30.230Z,72.00
2018-09-26T04:15:26.886Z,73.50
2018-09-26T04:17:55.021Z,73.90
2018-09-26T04:20:23.144Z,74.30
2018-09-26T04:22:51.193Z,74.40
2018-09-26T04:27:47.688Z,74.80
2018-09-26T04:30:15.734Z,74.70
2018-09-26T04:32:43.810Z,74.50
2018-09-26T04:35:11.831Z,74.20
2018-09-26T04:37:39.999Z,74.00
2018-09-26T04:40:08.009Z,73.60
2018-09-26T04:45:05.254Z,73.60
2018-09-26T04:47:33.443Z,73.70
2018-09-26T04:50:01.533Z,74.20
2018-09-26T04:52:29.585Z,73.90
2018-09-26T04:54:57.647Z,74.00
2018-09-26T04:57:25.628Z,74.20
2018-09-26T04:59:53.855Z,73.80
2018-09-26T05:02:21.842Z,74.40
2018-09-26T05:04:49.934Z,74.60
2018-09-26T05:07:18.141Z,74.00
2018-09-26T05:09:46.400Z,73.90
2018-09-26T05:12:14.477Z,74.10
2018-09-26T05:17:10.633Z,74.20
2018-09-26T05:19:38.687Z,73.40
2018-09-26T05:22:06.928Z,72.40
2018-09-26T05:24:35.128Z,72.50
2018-09-26T05:29:31.261Z,73.20
2018-09-26T05:31:59.353Z,73.40
2018-09-26T05:34:27.406Z,73.30
2018-09-26T05:36:55.492Z,73.00
2018-09-26T05:39:23.567Z,72.70
2018-09-26T05:41:51.716Z,72.00
2018-09-26T05:44:19.733Z,71.60
2018-09-26T05:46:47.695Z,71.00
2018-09-26T05:49:15.828Z,70.20
2018-09-26T05:54:12.468Z,69.80
2018-09-26T05:56:40.680Z,68.40
2018-09-26T06:01:36.869Z,66.00
2018-09-26T06:06:32.936Z,63.80
2018-09-26T06:09:01.012Z,63.30
2018-09-26T06:11:28.980Z,63.00
2018-09-26T06:13:57.704Z,61.90
2018-09-26T06:16:25.817Z,61.20
2018-09-26T06:18:54.087Z,59.60
2018-09-26T06:21:22.273Z,57.40
2018-09-26T06:23:50.375Z,55.20
2018-09-26T06:26:18.759Z,53.50
2018-09-26T06:28:46.788Z,51.50
2018-09-26T06:33:42.965Z,48.00
2018-09-26T06:36:11.379Z,47.70
2018-09-26T06:38:39.408Z,46.70
2018-09-26T06:41:07.510Z,46.10
2018-09-26T06:43:35.597Z,45.20
2018-09-26T06:46:03.603Z,44.30
2018-09-26T06:48:31.672Z,43.60
2018-09-26T06:53:27.840Z,42.10
2018-09-26T06:55:55.891Z,40.70
2018-09-26T06:58:24.280Z,40.50
2018-09-26T07:00:52.343Z,40.10
2018-09-26T07:05:48.533Z,38.80
2018-09-26T07:10:45.014Z,38.00
2018-09-26T07:13:13.292Z,37.40
2018-09-26T07:15:41.396Z,37.70
2018-09-26T07:18:09.381Z,38.90
2018-09-26T07:20:37.597Z,38.40
2018-09-26T07:25:33.684Z,36.30
2018-09-26T07:28:01.740Z,36.10
2018-09-26T07:30:32.004Z,36.60
2018-09-26T07:33:00.082Z,36.10
2018-09-26T07:35:28.083Z,34.80
2018-09-26T07:37:56.188Z,33.90
2018-09-26T07:40:24.241Z,34.60
2018-09-26T07:42:52.439Z,35.90
2018-09-26T07:45:20.740Z,35.40
2018-09-26T07:47:48.799Z,33.80
2018-09-26T07:50:16.854Z,32.60
2018-09-26T07:52:46.153Z,32.10
2018-09-26T07:55:14.233Z,31.90
2018-09-26T08:02:38.403Z,33.30
2018-09-26T08:05:06.564Z,32.60
2018-09-26T08:07:34.612Z,33.10
2018-09-26T08:17:26.868Z,31.30
2018-09-26T08:19:55.208Z,30.40
2018-09-26T08:24:51.777Z,31.50
2018-09-26T08:27:20.050Z,31.80
2018-09-26T08:32:17.640Z,32.90
2018-09-26T08:37:13.872Z,32.50
2018-09-26T08:42:09.873Z,31.40
2018-09-26T08:44:38.175Z,30.60
2018-09-26T08:47:07.108Z,30.50
2018-09-26T08:49:35.136Z,31.10
2018-09-26T08:52:03.223Z,30.80
2018-09-26T08:54:31.286Z,30.80
2018-09-26T08:59:28.218Z,32.60
2018-09-26T09:01:56.438Z,33.20
2018-09-26T09:04:24.503Z,34.10
2018-09-26T09:06:52.622Z,35.40
2018-09-26T09:09:21.860Z,36.50
2018-09-26T09:11:49.949Z,37.30
2018-09-26T09:14:18.095Z,37.10
2018-09-26T09:16:46.063Z,37.90
2018-09-26T09:19:14.196Z,38.00
2018-09-26T09:21:43.447Z,37.80
2018-09-26T09:24:11.582Z,38.00
2018-09-26T09:26:39.597Z,37.40
2018-09-26T09:29:07.756Z,36.30
2018-09-26T09:34:03.799Z,33.70
2018-09-26T09:36:32.851Z,32.80
2018-09-26T09:39:02.241Z,32.50
2018-09-26T09:51:22.250Z,30.80
2018-09-26T09:53:50.555Z,30.70
2018-09-26T09:56:18.634Z,29.70
2018-09-26T09:58:46.674Z,29.50
2018-09-26T10:03:50.231Z,28.80
2018-09-26T10:06:18.251Z,29.40
2018-09-26T10:08:46.476Z,28.90
2018-09-26T10:11:14.728Z,28.40
2018-09-26T10:13:44.472Z,29.00
2018-09-26T10:16:12.748Z,28.70
2018-09-26T10:21:08.895Z,29.60
2018-09-26T10:23:36.876Z,30.30
2018-09-26T10:26:05.147Z,30.10
2018-09-26T10:28:33.368Z,30.40
2018-09-26T10:33:29.330Z,31.30
2018-09-26T10:35:57.634Z,31.50
2018-09-26T10:38:25.771Z,31.60
2018-09-26T10:40:53.782Z,31.70
2018-09-26T10:43:21.810Z,30.90
2018-09-26T10:45:49.886Z,31.60
2018-09-26T10:50:46.001Z,32.40
2018-09-26T10:53:14.107Z,32.80
2018-09-26T10:55:42.148Z,32.80
2018-09-26T10:58:10.324Z,32.70
2018-09-26T11:00:38.727Z,32.00
2018-09-26T11:03:07.071Z,32.10
2018-09-26T11:05:35.668Z,32.90
2018-09-26T11:10:31.528Z,33.30
2018-09-26T11:12:59.594Z,33.70
2018-09-26T11:17:55.433Z,34.80
2018-09-26T11:20:23.610Z,35.70
2018-09-26T11:22:51.848Z,35.80
2018-09-26T11:25:19.908Z,34.70
2018-09-26T11:30:16.068Z,33.50
2018-09-26T11:32:44.153Z,34.40
2018-09-26T11:35:12.220Z,33.70
2018-09-26T11:37:40.276Z,35.00
2018-09-26T11:40:08.329Z,36.50
2018-09-26T11:45:04.619Z,36.50
2018-09-26T11:47:32.857Z,35.10
2018-09-26T11:50:00.961Z,34.60
2018-09-26T11:55:02.664Z,33.20
2018-09-26T11:59:58.760Z,34.50
2018-09-26T12:02:26.932Z,34.30
2018-09-26T12:04:54.973Z,34.10
2018-09-26T12:07:22.989Z,34.10
2018-09-26T12:09:51.056Z,34.20
2018-09-26T12:12:19.191Z,34.20
2018-09-26T12:17:15.285Z,35.20
2018-09-26T12:22:12.436Z,35.50
2018-09-26T12:27:08.506Z,35.80
2018-09-26T12:29:36.520Z,36.00
2018-09-26T12:32:04.624Z,36.20
2018-09-26T12:34:32.708Z,37.10
2018-09-26T12:37:00.800Z,37.90
2018-09-26T12:39:28.836Z,38.30
2018-09-26T12:41:56.888Z,38.60
2018-09-26T12:44:25.403Z,38.50
2018-09-26T12:49:22.392Z,37.90
2018-09-26T12:51:50.404Z,37.50
2018-09-26T12:54:18.461Z,36.80
2018-09-26T12:59:14.296Z,37.80
2018-09-26T13:01:42.393Z,38.20
2018-09-26T13:04:10.413Z,38.50
2018-09-26T13:06:38.537Z,38.20
2018-09-26T13:11:34.719Z,38.60
2018-09-26T13:14:02.716Z,38.40
2018-09-26T13:18:58.943Z,37.30
2018-09-26T13:21:26.940Z,37.10
2018-09-26T13:23:55.047Z,36.80
2018-09-26T13:28:51.212Z,37.20
2018-09-26T13:31:19.239Z,37.50
2018-09-26T13:33:47.374Z,37.50
2018-09-26T13:36:15.377Z,37.10
2018-09-26T13:38:43.452Z,37.10
2018-09-26T13:41:11.524Z,36.50
2018-09-26T13:43:39.591Z,36.90
2018-09-26T13:46:07.726Z,36.50
2018-09-26T13:48:35.715Z,35.70
2018-09-26T13:55:59.956Z,37.20
2018-09-26T13:58:28.044Z,38.40
2018-09-26T14:00:56.109Z,39.00
2018-09-26T14:03:24.173Z,38.30
2018-09-26T14:05:52.217Z,39.10
2018-09-26T14:08:20.367Z,39.10
2018-09-26T14:10:48.445Z,39.20
2018-09-26T14:15:44.570Z,39.50
2018-09-26T14:18:12.617Z,39.00
2018-09-26T14:20:40.708Z,39.40
2018-09-26T14:23:08.796Z,39.50
2018-09-26T14:25:36.958Z,39.40
2018-09-26T14:28:05.172Z,39.50
2018-09-26T14:33:01.332Z,40.20
2018-09-26T14:35:29.306Z,40.40
2018-09-26T14:37:57.525Z,40.70
2018-09-26T14:40:25.528Z,40.50
2018-09-26T14:42:53.612Z,41.00
2018-09-26T14:45:21.670Z,41.00
2018-09-26T14:47:49.753Z,40.80
2018-09-26T14:50:17.923Z,40.50
2018-09-26T14:52:46.265Z,40.50
2018-09-26T14:55:15.578Z,40.80
2018-09-26T14:57:43.580Z,41.60
2018-09-26T15:02:39.709Z,41.70
2018-09-26T15:05:07.776Z,42.10
2018-09-26T15:07:35.856Z,41.80
2018-09-26T15:10:04.962Z,42.30
2018-09-26T15:12:32.950Z,42.30
2018-09-26T15:17:28.940Z,43.00
2018-09-26T15:19:57.179Z,43.30
2018-09-26T15:24:53.284Z,43.70
2018-09-26T15:27:21.349Z,43.60
2018-09-26T15:32:17.725Z,43.70
2018-09-26T15:34:45.857Z,43.40
2018-09-26T15:37:13.920Z,42.80
2018-09-26T15:39:42.066Z,43.00
2018-09-26T15:42:10.045Z,43.40
2018-09-26T15:47:06.296Z,43.50
2018-09-26T15:52:04.320Z,43.80
2018-09-26T15:57:00.394Z,44.70
2018-09-26T15:59:28.441Z,44.70
2018-09-26T16:06:53.844Z,45.40
2018-09-26T16:09:21.936Z,45.60
2018-09-26T16:11:50.020Z,45.40
2018-09-26T16:14:18.172Z,45.60
2018-09-26T16:19:16.415Z,46.20
2018-09-26T16:21:44.427Z,46.60
2018-09-26T16:24:12.589Z,46.90
2018-09-26T16:29:11.714Z,47.30
2018-09-26T16:31:39.869Z,47.50
2018-09-26T16:34:07.909Z,48.00
2018-09-26T16:36:35.959Z,47.80
2018-09-26T16:41:33.925Z,48.40
2018-09-26T16:44:02.005Z,49.00
2018-09-26T16:46:30.120Z,48.90
2018-09-26T16:48:58.168Z,49.10
2018-09-26T16:51:26.596Z,48.90
2018-09-26T16:53:54.598Z,48.80
2018-09-26T16:56:22.714Z,49.00
2018-09-26T16:58:50.773Z,48.90
2018-09-26T17:01:19.216Z,49.10
2018-09-26T17:03:47.493Z,49.20
2018-09-26T17:06:15.597Z,49.40
2018-09-26T17:08:43.688Z,49.50
2018-09-26T17:16:09.391Z,50.40
2018-09-26T17:18:37.447Z,50.50
2018-09-26T17:21:05.596Z,51.10
2018-09-26T17:23:33.585Z,51.00
2018-09-26T17:28:29.760Z,51.80
2018-09-26T17:30:57.935Z,51.90
2018-09-26T17:33:26.168Z,52.10
2018-09-26T17:35:54.230Z,51.80
2018-09-26T17:40:50.203Z,52.20
2018-09-26T17:45:46.233Z,52.20
2018-09-26T17:48:14.373Z,52.50
2018-09-26T17:50:42.443Z,52.50
2018-09-26T17:53:10.801Z,52.70
2018-09-26T17:55:38.864Z,52.70
2018-09-26T17:58:06.966Z,53.40
2018-09-26T18:03:03.027Z,54.40
2018-09-26T18:10:27.281Z,55.30
2018-09-26T18:12:55.387Z,55.20
2018-09-26T18:20:19.549Z,55.90
2018-09-26T18:30:15.223Z,57.00
2018-09-26T18:35:11.340Z,57.50
2018-09-26T18:40:07.485Z,57.10
2018-09-26T18:42:35.536Z,57.10
2018-09-26T18:45:03.987Z,57.30
2018-09-26T18:47:32.081Z,57.30
2018-09-26T18:50:00.409Z,57.80
2018-09-26T18:52:28.461Z,57.90
2018-09-26T18:54:56.534Z,57.60
2018-09-26T18:57:24.609Z,58.10
2018-09-26T18:59:53.939Z,58.60
2018-09-26T19:04:50.046Z,58.90
2018-09-26T19:09:47.091Z,58.90
2018-09-26T19:12:15.241Z,59.30
2018-09-26T19:14:43.252Z,59.60
2018-09-26T19:17:11.313Z,59.30
2018-09-26T19:22:07.695Z,59.80
2018-09-26T19:24:36.731Z,60.00
2018-09-26T19:27:04.893Z,60.50
2018-09-26T19:29:32.860Z,60.60
2018-09-26T19:36:57.418Z,60.20
2018-09-26T19:39:25.608Z,61.00
2018-09-26T19:41:53.884Z,60.90
2018-09-26T19:44:23.228Z,60.90
2018-09-26T19:46:51.196Z,61.00
2018-09-26T19:49:19.308Z,60.80
2018-09-26T19:51:47.377Z,61.20
2018-09-26T19:54:17.593Z,61.20
2018-09-26T19:56:45.701Z,61.50
2018-09-26T20:01:41.832Z,61.60
2018-09-26T20:04:09.784Z,62.10
2018-09-26T20:09:08.845Z,62.70
2018-09-26T20:11:36.922Z,62.70
2018-09-26T20:14:04.974Z,62.10
2018-09-26T20:16:33.110Z,62.30
2018-09-26T20:21:29.000Z,63.70
2018-09-26T20:23:57.346Z,63.70
2018-09-26T20:26:26.413Z,63.70
2018-09-26T20:28:54.908Z,64.00
2018-09-26T20:31:22.988Z,63.90
2018-09-26T20:33:51.059Z,64.00
2018-09-26T20:36:19.418Z,64.40
2018-09-26T20:38:48.665Z,64.70
2018-09-26T20:41:16.813Z,64.10
2018-09-26T20:43:44.852Z,64.50
2018-09-26T20:48:44.397Z,65.10
2018-09-26T20:53:41.433Z,65.00
2018-09-26T20:56:09.503Z,65.10
2018-09-26T20:58:37.624Z,64.90
2018-09-26T21:01:06.021Z,65.10
2018-09-26T21:06:02.099Z,65.60
2018-09-26T21:08:30.243Z,65.60
2018-09-26T21:15:54.114Z,66.20
2018-09-26T21:18:22.182Z,66.40
2018-09-26T21:20:50.152Z,66.40
2018-09-26T21:23:18.618Z,66.20
2018-09-26T21:25:46.716Z,66.60
2018-09-26T21:28:14.736Z,66.80
2018-09-26T21:30:42.842Z,66.90
2018-09-26T21:33:10.891Z,67.10
2018-09-26T21:35:38.960Z,67.10
2018-09-26T21:38:07.074Z,67.50
2018-09-26T21:40:35.096Z,67.70
2018-09-26T21:43:03.563Z,67.70
2018-09-26T21:45:31.540Z,67.30
2018-09-26T21:50:27.724Z,67.60
2018-09-26T21:55:23.895Z,68.40
2018-09-26T21:57:51.939Z,68.80
2018-09-26T22:00:20.106Z,68.50
2018-09-26T22:02:48.381Z,68.10
2018-09-26T22:05:16.483Z,68.40
2018-09-26T22:07:44.493Z,68.50
2018-09-26T22:10:12.568Z,68.90
2018-09-26T22:15:12.580Z,68.50
2018-09-26T22:17:40.853Z,68.90
2018-09-26T22:22:36.613Z,69.20
2018-09-26T22:25:04.734Z,69.00
2018-09-26T22:30:00.820Z,69.00
2018-09-26T22:32:28.900Z,69.10
2018-09-26T22:34:57.009Z,69.50
2018-09-26T22:39:53.145Z,69.30
2018-09-26T22:44:49.526Z,69.40
2018-09-26T22:47:18.545Z,68.70
2018-09-26T22:49:46.691Z,69.20
2018-09-26T22:52:14.686Z,69.50
2018-09-26T22:57:11.277Z,69.80
2018-09-26T23:02:07.328Z,70.40
2018-09-26T23:04:35.361Z,70.30
2018-09-26T23:07:03.501Z,70.40
2018-09-26T23:09:31.458Z,70.80
2018-09-26T23:14:29.187Z,70.90
2018-09-26T23:16:57.467Z,71.20
2018-09-26T23:19:25.960Z,71.60
2018-09-26T23:21:54.043Z,71.90
2018-09-26T23:24:22.049Z,72.00
2018-09-26T23:26:50.016Z,71.90
2018-09-26T23:29:18.304Z,71.40
2018-09-26T23:31:46.312Z,71.00
2018-09-26T23:34:15.588Z,70.50
2018-09-26T23:36:43.698Z,70.20
2018-09-26T23:41:39.987Z,69.80
2018-09-26T23:46:36.268Z,69.60
2018-09-26T23:49:04.381Z,70.40
2018-09-26T23:51:32.398Z,70.60
2018-09-26T23:54:00.949Z,70.60
2018-09-26T23:56:29.548Z,71.00
2018-09-26T23:58:58.241Z,71.80
